createdAt,value
2022-07-30T00:00:00.000Z,3.36
2022-07-30T00:15:00.000Z,3.28
2022-07-30T00:30:00.000Z,3.29
2022-07-30T00:45:00.000Z,3.33
2022-07-30T01:00:00.000Z,3.32
2022-07-30T01:15:00.000Z,3.18
2022-07-30T01:30:00.000Z,3.24
2022-07-30T01:45:00.000Z,3.01
2022-07-30T02:00:00.000Z,2.61
2022-07-30T02:15:00.000Z,2.88
2022-07-30T02:30:00.000Z,3.01
2022-07-30T02:45:00.000Z,2.96
2022-07-30T03:00:00.000Z,2.89
2022-07-30T03:15:00.000Z,3.06
2022-07-30T03:30:00.000Z,3.11
2022-07-30T03:45:00.000Z,3.06
2022-07-30T04:00:00.000Z,2.48
2022-07-30T04:30:00.000Z,4
2022-07-30T04:30:00.000Z,3.38
2022-07-30T04:45:00.000Z,3.94
2022-07-30T05:00:00.000Z,3.52
2022-07-30T05:15:00.000Z,3.13
2022-07-30T05:30:00.000Z,3.14
2022-07-30T05:45:00.000Z,3.14
2022-07-30T06:00:00.000Z,3.33
2022-07-30T06:15:00.000Z,3.42
2022-07-30T06:30:00.000Z,3.47
2022-07-30T06:45:00.000Z,3.56
2022-07-30T07:00:00.000Z,3.44
2022-07-30T07:15:00.000Z,3.67
2022-07-30T07:30:00.000Z,3.46
2022-07-30T07:45:00.000Z,5.56
2022-07-30T08:00:00.000Z,3.91
2022-07-30T08:15:00.000Z,3.68
2022-07-30T08:30:00.000Z,4.86
2022-07-30T08:45:00.000Z,5.33
2022-07-30T09:00:00.000Z,6.92
2022-07-30T09:15:00.000Z,7.47
2022-07-30T09:30:00.000Z,8.36
2022-07-30T09:45:00.000Z,6.29
2022-07-30T10:00:00.000Z,6.24
2022-07-30T10:30:00.000Z,5
2022-07-30T10:30:00.000Z,4.6
2022-07-30T10:45:00.000Z,4.82
2022-07-30T11:00:00.000Z,4.07
2022-07-30T11:15:00.000Z,4.34
2022-07-30T11:30:00.000Z,3.79
2022-07-30T11:45:00.000Z,3.91
2022-07-30T12:00:00.000Z,5.71
2022-07-30T12:15:00.000Z,3.53
2022-07-30T12:30:00.000Z,3.56
2022-07-30T12:45:00.000Z,3.36
2022-07-30T13:00:00.000Z,3.13
2022-07-30T13:15:00.000Z,3.11
2022-07-30T13:30:00.000Z,4.85
2022-07-30T13:45:00.000Z,3.04
2022-07-30T14:00:00.000Z,3.11
2022-07-30T14:15:00.000Z,3.22
2022-07-30T14:30:00.000Z,3.2
2022-07-30T14:45:00.000Z,3.21
2022-07-30T15:00:00.000Z,3.24
2022-07-30T15:15:00.000Z,3.68
2022-07-30T15:30:00.000Z,3.92
2022-07-30T15:45:00.000Z,4.86
2022-07-30T16:00:00.000Z,3.84
2022-07-30T16:15:00.000Z,3.41
2022-07-30T16:30:00.000Z,3.25
2022-07-30T16:45:00.000Z,3.22
2022-07-30T17:00:00.000Z,4.64
2022-07-30T17:15:00.000Z,3.44
2022-07-30T17:30:00.000Z,3.36
2022-07-30T17:45:00.000Z,3.53
2022-07-30T18:00:00.000Z,3.67
2022-07-30T18:15:00.000Z,4.26
2022-07-30T18:30:00.000Z,3.86
2022-07-30T18:45:00.000Z,4.73
2022-07-30T19:00:00.000Z,4
2022-07-30T19:15:00.000Z,4.62
2022-07-30T19:30:00.000Z,4.21
2022-07-30T19:45:00.000Z,4.66
2022-07-30T20:00:00.000Z,3.91
2022-07-30T20:15:00.000Z,3.87
2022-07-30T20:30:00.000Z,4.85
2022-07-30T20:45:00.000Z,3.88
2022-07-30T21:00:00.000Z,4.49
2022-07-30T21:15:00.000Z,4.86
2022-07-30T21:30:00.000Z,4.36
2022-07-30T21:45:00.000Z,3.66
2022-07-30T22:00:00.000Z,3.94
2022-07-30T22:15:00.000Z,4.13
2022-07-30T22:30:00.000Z,4.65
2022-07-30T22:45:00.000Z,4.79
2022-07-30T23:00:00.000Z,3.95
2022-07-30T23:15:00.000Z,3.72
2022-07-30T23:45:00.000Z,3
2022-07-30T23:45:00.000Z,3.18
